Terminal Aerodrome Forecast
Issued by NWS

Home | Current Version | Previous Version | Text Only | Print | Product List | Glossary Off
Versions: 1 2 3 4 5 6 7 8 9 10 11 12 13 14 15 16 17 18 19 20 21

000
FTUS43 KDDC 251120
TAFHYS
TAF
KHYS 251120Z 2512/2612 28008KT P6SM SCT200
     FM251600 23010KT P6SM SCT200
     FM251900 22013G18KT P6SM SCT200
     FM260000 21007KT P6SM SCT100=

USA.gov is the U.S. government's official web portal to all federal, state and local government web resources and services.